createdAt,value
2018-12-19T00:00:59.006Z,5.55
2018-12-19T00:01:57.551Z,5.54
2018-12-19T00:02:57.137Z,5.54
2018-12-19T00:03:57.538Z,5.47
2018-12-19T00:04:49.978Z,5.48
2018-12-19T00:05:49.966Z,5.47
2018-12-19T00:06:49.963Z,5.41
2018-12-19T00:07:49.951Z,5.44
2018-12-19T00:09:03.106Z,5.55
2018-12-19T00:09:57.461Z,5.48
2018-12-19T00:10:49.909Z,5.51
2018-12-19T00:11:58.721Z,5.48
2018-12-19T00:12:58.709Z,5.59
2018-12-19T00:13:49.904Z,5.50
2018-12-19T00:14:58.418Z,5.52
2018-12-19T00:15:57.410Z,5.48
2018-12-19T00:16:57.386Z,5.54
2018-12-19T00:17:57.376Z,5.52
2018-12-19T00:18:59.595Z,5.57
2018-12-19T00:19:57.364Z,5.52
2018-12-19T00:20:58.361Z,5.50
2018-12-19T00:21:57.334Z,5.47
2018-12-19T00:22:57.322Z,5.43
2018-12-19T00:23:58.766Z,5.54
2018-12-19T00:24:57.303Z,5.51
2018-12-19T00:25:57.412Z,5.48
2018-12-19T00:26:57.279Z,5.52
2018-12-19T00:27:57.289Z,5.51
2018-12-19T00:28:49.749Z,5.52
2018-12-19T00:29:49.729Z,5.51
2018-12-19T00:30:49.698Z,5.54
2018-12-19T00:31:49.691Z,5.48
2018-12-19T00:32:49.688Z,5.52
2018-12-19T00:33:49.684Z,5.58
2018-12-19T00:34:49.651Z,5.51
2018-12-19T00:35:49.651Z,5.57
2018-12-19T00:36:49.651Z,5.47
2018-12-19T00:37:49.632Z,5.54
2018-12-19T00:38:49.626Z,5.52
2018-12-19T00:39:49.597Z,5.59
2018-12-19T00:40:49.583Z,5.52
2018-12-19T00:41:49.578Z,5.50
2018-12-19T00:42:49.574Z,5.44
2018-12-19T00:43:49.605Z,5.52
2018-12-19T00:44:49.573Z,5.50
2018-12-19T00:45:49.531Z,5.44
2018-12-19T00:46:49.521Z,5.59
2018-12-19T00:47:49.510Z,5.62
2018-12-19T00:48:49.532Z,5.61
2018-12-19T00:49:49.490Z,5.62
2018-12-19T00:50:49.486Z,5.62
2018-12-19T00:51:49.472Z,5.62
2018-12-19T00:52:49.461Z,5.61
2018-12-19T00:53:49.465Z,5.61
2018-12-19T00:54:49.435Z,5.57
2018-12-19T00:55:49.427Z,5.61
2018-12-19T00:56:49.415Z,5.73
2018-12-19T00:57:49.412Z,5.62
2018-12-19T00:58:49.417Z,5.70
2018-12-19T00:59:49.387Z,5.70
2018-12-19T01:00:49.411Z,5.69
2018-12-19T01:01:49.362Z,5.73
2018-12-19T01:02:49.355Z,5.72
2018-12-19T01:03:49.362Z,5.75
2018-12-19T01:04:49.341Z,5.75
2018-12-19T01:05:49.319Z,5.75
2018-12-19T01:06:49.312Z,5.67
2018-12-19T01:07:49.308Z,5.70
2018-12-19T01:08:49.318Z,5.72
2018-12-19T01:09:49.284Z,5.75
2018-12-19T01:10:49.282Z,5.85
2018-12-19T01:11:49.258Z,5.75
2018-12-19T01:12:49.258Z,5.76
2018-12-19T01:13:49.242Z,5.87
2018-12-19T01:14:49.245Z,5.84
2018-12-19T01:15:49.217Z,5.84
2018-12-19T01:16:49.206Z,5.79
2018-12-19T01:17:49.193Z,5.77
2018-12-19T01:18:49.182Z,5.82
2018-12-19T01:19:49.197Z,5.85
2018-12-19T01:20:49.170Z,5.87
2018-12-19T01:21:49.187Z,5.84
2018-12-19T01:22:49.147Z,5.84
2018-12-19T01:23:49.134Z,5.87
2018-12-19T01:24:49.142Z,5.84
2018-12-19T01:25:49.186Z,5.84
2018-12-19T01:26:57.745Z,5.84
2018-12-19T01:27:49.088Z,5.84
2018-12-19T01:28:49.120Z,5.84
2018-12-19T01:31:22.770Z,5.85
2018-12-19T01:33:31.941Z,5.85
2018-12-19T01:34:31.930Z,5.85
2018-12-19T01:35:32.048Z,5.84
2018-12-19T01:36:31.918Z,5.84
2018-12-19T01:37:31.950Z,5.82
2018-12-19T01:38:39.437Z,5.82
2018-12-19T01:39:34.403Z,5.82
2018-12-19T01:40:31.887Z,5.82
2018-12-19T01:43:09.920Z,5.73
2018-12-19T01:44:09.930Z,5.87
2018-12-19T01:45:09.910Z,5.73
2018-12-19T01:46:09.909Z,5.84
2018-12-19T01:47:09.880Z,5.88
2018-12-19T01:48:09.879Z,5.84
2018-12-19T01:49:09.860Z,5.77
2018-12-19T01:50:09.854Z,5.87
2018-12-19T01:51:09.876Z,5.72
2018-12-19T01:52:09.825Z,5.84
2018-12-19T01:53:09.817Z,5.84
2018-12-19T01:54:18.403Z,5.87
2018-12-19T01:55:09.796Z,5.70
2018-12-19T01:56:19.362Z,5.79
2018-12-19T01:57:09.770Z,5.75
2018-12-19T01:58:09.762Z,5.84
2018-12-19T01:59:09.752Z,5.85
2018-12-19T02:00:09.757Z,5.77
2018-12-19T02:01:09.736Z,5.76
2018-12-19T02:02:09.779Z,5.75
2018-12-19T02:03:09.717Z,5.84
2018-12-19T02:04:09.697Z,5.75
2018-12-19T02:05:09.691Z,5.82
2018-12-19T02:06:09.681Z,5.72
2018-12-19T02:07:09.699Z,5.72
2018-12-19T02:08:09.660Z,5.80
2018-12-19T02:09:09.647Z,5.69
2018-12-19T02:10:09.645Z,5.70
2018-12-19T02:11:09.632Z,5.72
2018-12-19T02:12:09.643Z,5.76
2018-12-19T02:13:09.605Z,5.73
2018-12-19T02:14:09.596Z,5.73
2018-12-19T02:15:09.608Z,5.73
2018-12-19T02:16:09.583Z,5.73
2018-12-19T02:17:09.572Z,5.72
2018-12-19T02:18:09.574Z,5.76
2018-12-19T02:19:09.571Z,5.72
2018-12-19T02:20:17.066Z,5.70
2018-12-19T02:21:09.516Z,5.67
2018-12-19T02:22:09.510Z,5.70
2018-12-19T02:23:09.518Z,5.66
2018-12-19T02:24:09.496Z,5.69
2018-12-19T02:25:09.477Z,5.70
2018-12-19T02:26:09.469Z,5.70
2018-12-19T02:27:09.455Z,5.69
2018-12-19T02:28:09.465Z,5.75
2018-12-19T02:29:09.447Z,5.66
2018-12-19T02:30:19.479Z,5.67
2018-12-19T02:31:09.424Z,5.73
2018-12-19T02:32:09.401Z,5.73
2018-12-19T02:33:09.417Z,5.69
2018-12-19T02:34:09.379Z,5.76
2018-12-19T02:35:09.372Z,5.67
2018-12-19T02:36:09.369Z,5.76
2018-12-19T02:37:09.346Z,5.73
2018-12-19T02:38:09.354Z,5.72
2018-12-19T02:39:09.326Z,5.75
2018-12-19T02:40:09.317Z,5.73
2018-12-19T02:41:09.309Z,5.73
2018-12-19T02:42:09.296Z,5.76
2018-12-19T02:43:09.307Z,5.76
2018-12-19T02:44:09.276Z,5.72
2018-12-19T02:45:09.262Z,5.75
2018-12-19T02:46:09.259Z,5.76
2018-12-19T02:47:09.250Z,5.75
2018-12-19T02:49:27.713Z,5.85
2018-12-19T02:51:36.920Z,5.88
2018-12-19T02:53:46.148Z,5.93
2018-12-19T02:54:53.767Z,5.79
2018-12-19T02:55:53.669Z,5.91
2018-12-19T02:57:57.402Z,5.91
2018-12-19T02:59:04.954Z,5.90
2018-12-19T03:00:05.938Z,5.93
2018-12-19T03:01:04.887Z,5.90
2018-12-19T03:02:04.903Z,5.95
2018-12-19T03:03:07.211Z,5.91
2018-12-19T03:03:57.322Z,5.91
2018-12-19T03:04:57.314Z,5.97
2018-12-19T03:06:05.871Z,5.85
2018-12-19T03:06:57.358Z,5.88
2018-12-19T03:07:57.301Z,5.98
2018-12-19T03:09:09.291Z,5.94
2018-12-19T03:11:24.388Z,6.00
2018-12-19T03:13:47.170Z,6.03
2018-12-19T03:15:57.420Z,6.03
2018-12-19T03:16:57.348Z,6.06
2018-12-19T03:17:57.338Z,6.05
2018-12-19T03:20:15.102Z,6.08
2018-12-19T03:22:37.705Z,6.09
2018-12-19T03:24:47.943Z,6.08
2018-12-19T03:25:47.918Z,6.12
2018-12-19T03:28:27.245Z,6.12
2018-12-19T03:30:36.492Z,6.06
2018-12-19T03:32:45.703Z,6.06
2018-12-19T03:35:07.761Z,6.02
2018-12-19T03:37:16.996Z,5.97
2018-12-19T03:39:26.248Z,6.08
2018-12-19T03:40:34.709Z,6.00
2018-12-19T03:43:52.822Z,6.06
2018-12-19T03:46:02.048Z,6.08
2018-12-19T03:47:10.581Z,6.00
2018-12-19T03:48:10.823Z,5.95
2018-12-19T03:49:09.548Z,6.00
2018-12-19T03:50:11.922Z,6.06
2018-12-19T03:51:09.530Z,6.06
2018-12-19T03:52:09.502Z,6.12
2018-12-19T03:53:09.552Z,6.06
2018-12-19T03:54:09.492Z,6.06
2018-12-19T03:55:10.588Z,6.05
2018-12-19T03:56:10.490Z,6.19
2018-12-19T03:57:09.463Z,6.02
2018-12-19T03:59:19.086Z,6.30
2018-12-19T04:01:29.323Z,6.24
2018-12-19T04:03:39.779Z,6.30
2018-12-19T04:05:48.950Z,6.30
2018-12-19T04:07:58.191Z,6.24
2018-12-19T04:10:07.415Z,6.25
2018-12-19T04:12:16.649Z,6.18
2018-12-19T04:14:26.885Z,6.21
2018-12-19T04:15:36.618Z,6.16
2018-12-19T04:16:26.808Z,6.03
2018-12-19T04:17:35.332Z,6.03
2018-12-19T04:19:42.936Z,6.03
2018-12-19T04:21:52.174Z,6.08
2018-12-19T04:24:02.394Z,6.05
2018-12-19T04:25:10.934Z,5.98
2018-12-19T04:26:11.156Z,5.94
2018-12-19T04:27:09.889Z,6.03
2018-12-19T04:28:09.873Z,6.08
2018-12-19T04:29:09.933Z,6.05
2018-12-19T04:30:09.858Z,6.00
2018-12-19T04:31:09.853Z,6.03
2018-12-19T04:32:11.868Z,6.08
2018-12-19T04:33:02.278Z,6.06
2018-12-19T04:34:09.811Z,6.03
2018-12-19T04:35:09.802Z,5.98
2018-12-19T04:36:09.813Z,6.06
2018-12-19T04:37:09.990Z,6.00
2018-12-19T04:38:09.764Z,6.03
2018-12-19T04:39:03.044Z,6.08
2018-12-19T04:40:09.741Z,6.00
2018-12-19T04:41:10.745Z,5.98
2018-12-19T04:42:12.167Z,6.02
2018-12-19T04:43:09.740Z,6.02
2018-12-19T04:44:09.715Z,6.00
2018-12-19T04:45:09.698Z,5.98
2018-12-19T04:46:02.150Z,5.97
2018-12-19T04:47:09.672Z,6.05
2018-12-19T04:48:12.354Z,5.95
2018-12-19T04:49:09.659Z,5.95
2018-12-19T04:50:09.643Z,5.94
2018-12-19T04:51:02.088Z,6.06
2018-12-19T04:52:09.622Z,6.03
2018-12-19T04:53:10.998Z,6.06
2018-12-19T04:54:09.600Z,6.03
2018-12-19T04:55:09.608Z,6.09
2018-12-19T04:57:18.810Z,6.18
2018-12-19T04:59:28.037Z,6.21
2018-12-19T05:00:36.556Z,6.16
2018-12-19T05:01:35.617Z,6.16
2018-12-19T05:02:35.603Z,6.16
2018-12-19T05:04:44.231Z,6.18
2018-12-19T05:06:54.523Z,6.27
2018-12-19T05:09:23.768Z,6.16
2018-12-19T05:11:52.440Z,6.28
2018-12-19T05:13:54.235Z,6.19
2018-12-19T05:14:54.321Z,6.16
2018-12-19T05:15:54.212Z,6.13
2018-12-19T05:16:54.211Z,6.16
2018-12-19T05:18:45.284Z,6.21
2018-12-19T05:19:55.008Z,6.21
2018-12-19T05:20:45.251Z,6.28
2018-12-19T05:21:45.237Z,6.25
2018-12-19T05:22:45.231Z,6.24
2018-12-19T05:23:45.220Z,6.32
2018-12-19T05:24:45.238Z,6.21
2018-12-19T05:25:45.214Z,6.21
2018-12-19T05:26:45.192Z,6.21
2018-12-19T05:27:45.180Z,6.30
2018-12-19T05:28:45.174Z,6.25
2018-12-19T05:29:45.163Z,6.24
2018-12-19T05:30:45.161Z,6.31
2018-12-19T05:31:45.132Z,6.30
2018-12-19T05:32:45.205Z,6.24
2018-12-19T05:33:45.108Z,6.30
2018-12-19T05:34:45.104Z,6.28
2018-12-19T05:35:45.162Z,6.25
2018-12-19T05:36:45.121Z,6.31
2018-12-19T05:37:45.068Z,6.27
2018-12-19T05:38:45.059Z,6.21
2018-12-19T05:39:45.049Z,6.31
2018-12-19T05:40:45.057Z,6.27
2018-12-19T05:41:45.028Z,6.28
2018-12-19T05:42:45.043Z,6.32
2018-12-19T05:43:45.013Z,6.30
2018-12-19T05:44:45.016Z,6.32
2018-12-19T05:45:44.999Z,6.24
2018-12-19T05:46:44.974Z,6.38
2018-12-19T05:47:44.966Z,6.28
2018-12-19T05:48:44.952Z,6.30
2018-12-19T05:49:44.940Z,6.35
2018-12-19T05:50:44.947Z,6.42
2018-12-19T05:51:44.974Z,6.45
2018-12-19T05:52:44.955Z,6.46
2018-12-19T05:53:44.896Z,6.37
2018-12-19T05:54:44.886Z,6.47
2018-12-19T05:55:44.917Z,6.37
2018-12-19T05:56:44.885Z,6.38
2018-12-19T05:57:44.852Z,6.46
2018-12-19T05:58:44.852Z,6.40
2018-12-19T05:59:44.862Z,6.37
2018-12-19T06:00:44.824Z,6.37
2018-12-19T06:01:44.844Z,6.43
2018-12-19T06:02:44.815Z,6.43
2018-12-19T06:03:44.820Z,6.45
2018-12-19T06:04:44.781Z,6.40
2018-12-19T06:05:44.772Z,6.46
2018-12-19T06:06:44.806Z,6.47
2018-12-19T06:07:44.787Z,6.57
2018-12-19T06:08:44.742Z,6.56
2018-12-19T06:09:44.732Z,6.63
2018-12-19T06:10:44.723Z,6.55
2018-12-19T06:11:44.709Z,6.56
2018-12-19T06:12:44.714Z,6.61
2018-12-19T06:13:44.703Z,6.61
2018-12-19T06:14:44.679Z,6.68
2018-12-19T06:15:44.691Z,6.55
2018-12-19T06:16:44.662Z,6.60
2018-12-19T06:17:44.668Z,6.65
2018-12-19T06:18:44.632Z,6.67
2018-12-19T06:19:44.624Z,6.63
2018-12-19T06:20:44.609Z,6.68
2018-12-19T06:21:44.621Z,6.71
2018-12-19T06:22:44.616Z,6.71
2018-12-19T06:23:44.579Z,6.73
2018-12-19T06:24:44.595Z,6.74
2018-12-19T06:25:44.583Z,6.73
2018-12-19T06:26:44.563Z,6.67
2018-12-19T06:27:44.540Z,6.65
2018-12-19T06:28:44.578Z,6.64
2018-12-19T06:29:44.550Z,6.63
2018-12-19T06:30:44.527Z,6.70
2018-12-19T06:31:44.491Z,6.78
2018-12-19T06:32:44.512Z,6.75
2018-12-19T06:33:44.484Z,6.81
2018-12-19T06:34:44.480Z,6.75
2018-12-19T06:35:44.448Z,6.74
2018-12-19T06:36:44.437Z,6.79
2018-12-19T06:37:44.428Z,6.78
2018-12-19T06:38:44.422Z,6.79
2018-12-19T06:39:44.445Z,6.73
2018-12-19T06:40:44.435Z,6.79
2018-12-19T06:41:44.451Z,6.81
2018-12-19T06:42:44.373Z,6.86
2018-12-19T06:43:44.364Z,6.85
2018-12-19T06:44:44.416Z,6.85
2018-12-19T06:45:44.342Z,6.89
2018-12-19T06:46:44.332Z,6.83
2018-12-19T06:47:44.322Z,6.88
2018-12-19T06:48:44.328Z,6.89
2018-12-19T06:49:44.324Z,6.85
2018-12-19T06:50:51.833Z,6.91
2018-12-19T06:51:44.280Z,6.86
2018-12-19T06:52:44.269Z,6.85
2018-12-19T06:53:44.260Z,6.85
2018-12-19T06:54:44.305Z,6.83
2018-12-19T06:55:44.277Z,6.78
2018-12-19T06:56:44.226Z,6.78
2018-12-19T06:57:44.214Z,6.79
2018-12-19T06:58:44.203Z,6.83
2018-12-19T06:59:44.236Z,6.75
2018-12-19T07:00:44.184Z,6.82
2018-12-19T07:01:44.178Z,6.82
2018-12-19T07:02:44.164Z,6.81
2018-12-19T07:03:44.151Z,6.86
2018-12-19T07:04:44.141Z,6.85
2018-12-19T07:05:44.148Z,6.86
2018-12-19T07:06:44.117Z,6.91
2018-12-19T07:07:44.111Z,6.79
2018-12-19T07:08:44.098Z,6.89
2018-12-19T07:09:44.099Z,6.83
2018-12-19T07:10:44.094Z,6.89
2018-12-19T07:11:44.079Z,6.92
2018-12-19T07:12:44.057Z,6.88
2018-12-19T07:13:44.042Z,6.83
2018-12-19T07:14:44.061Z,6.92
2018-12-19T07:15:44.040Z,6.92
2018-12-19T07:16:44.012Z,6.91
2018-12-19T07:17:44.009Z,6.89
2018-12-19T07:18:43.987Z,6.85
2018-12-19T07:19:43.978Z,6.88
2018-12-19T07:20:44.016Z,6.89
2018-12-19T07:21:43.954Z,6.83
2018-12-19T07:22:43.943Z,6.85
2018-12-19T07:23:43.943Z,6.92
2018-12-19T07:24:43.923Z,6.91
2018-12-19T07:25:44.012Z,6.97
2018-12-19T07:26:43.906Z,6.97
2018-12-19T07:27:43.904Z,6.97
2018-12-19T07:28:43.880Z,6.92
2018-12-19T07:29:43.891Z,6.97
2018-12-19T07:30:43.885Z,6.97
2018-12-19T07:31:43.857Z,6.91
2018-12-19T07:32:43.887Z,6.93
2018-12-19T07:33:43.860Z,7.00
2018-12-19T07:34:44.315Z,6.99
2018-12-19T07:35:43.853Z,6.96
2018-12-19T07:36:43.796Z,6.97
2018-12-19T07:37:43.780Z,7.03
2018-12-19T07:38:43.781Z,7.01
2018-12-19T07:39:43.810Z,7.01
2018-12-19T07:40:45.806Z,6.96
2018-12-19T07:41:43.827Z,7.03
2018-12-19T07:42:43.729Z,7.01
2018-12-19T07:43:43.718Z,7.04
2018-12-19T07:44:43.703Z,7.04
2018-12-19T07:45:43.720Z,7.00
2018-12-19T07:46:43.682Z,6.99
2018-12-19T07:47:43.681Z,6.99
2018-12-19T07:48:43.668Z,7.03
2018-12-19T07:49:43.656Z,7.08
2018-12-19T07:50:43.694Z,7.04
2018-12-19T07:51:43.647Z,7.08
2018-12-19T07:52:43.628Z,7.08
2018-12-19T07:53:43.618Z,7.08
2018-12-19T07:54:43.602Z,7.10
2018-12-19T07:55:43.588Z,7.15
2018-12-19T07:56:43.598Z,7.19
2018-12-19T07:57:43.565Z,7.11
2018-12-19T07:58:43.572Z,7.07
2018-12-19T07:59:43.554Z,7.10
2018-12-19T08:00:43.540Z,7.11
2018-12-19T08:01:43.566Z,7.18
2018-12-19T08:02:43.521Z,7.11
2018-12-19T08:03:43.505Z,7.24
2018-12-19T08:04:43.495Z,7.22
2018-12-19T08:05:43.488Z,7.21
2018-12-19T08:06:43.469Z,7.24
2018-12-19T08:07:43.484Z,7.25
2018-12-19T08:08:43.452Z,7.39
2018-12-19T08:09:43.486Z,7.43
2018-12-19T08:10:43.439Z,7.39
2018-12-19T08:11:43.500Z,7.39
2018-12-19T08:12:43.431Z,7.42
2018-12-19T08:13:43.403Z,7.40
2018-12-19T08:14:43.413Z,7.39
2018-12-19T08:15:43.394Z,7.37
2018-12-19T08:16:43.400Z,7.50
2018-12-19T08:17:43.540Z,7.40
2018-12-19T08:18:43.339Z,7.34
2018-12-19T08:19:43.331Z,7.47
2018-12-19T08:20:43.318Z,7.46
2018-12-19T08:21:43.309Z,7.47
2018-12-19T08:22:43.382Z,7.47
2018-12-19T08:23:43.302Z,7.54
2018-12-19T08:24:43.279Z,7.46
2018-12-19T08:25:43.269Z,7.36
2018-12-19T08:26:43.275Z,7.49
2018-12-19T08:27:43.268Z,7.50
2018-12-19T08:28:43.258Z,7.47
2018-12-19T08:29:43.227Z,7.50
2018-12-19T08:30:43.212Z,7.50
2018-12-19T08:31:43.203Z,7.54
2018-12-19T08:32:43.239Z,7.57
2018-12-19T08:33:43.185Z,7.58
2018-12-19T08:34:43.179Z,7.64
2018-12-19T08:35:43.161Z,7.57
2018-12-19T08:36:43.225Z,7.55
2018-12-19T08:37:43.143Z,7.58
2018-12-19T08:38:43.147Z,7.54
2018-12-19T08:39:43.119Z,7.60
2018-12-19T08:40:43.113Z,7.61
2018-12-19T08:41:43.103Z,7.60
2018-12-19T08:42:43.082Z,7.58
2018-12-19T08:43:43.088Z,7.61
2018-12-19T08:44:43.067Z,7.57
2018-12-19T08:45:43.062Z,7.68
2018-12-19T08:46:43.071Z,7.69
2018-12-19T08:47:43.030Z,7.71
2018-12-19T08:48:43.036Z,7.69
2018-12-19T08:49:43.019Z,7.78
2018-12-19T08:50:42.994Z,7.73
2018-12-19T08:51:42.994Z,7.68
2018-12-19T08:52:42.975Z,7.69
2018-12-19T08:53:42.982Z,7.76
2018-12-19T08:54:42.951Z,7.77
2018-12-19T08:55:42.939Z,7.74
2018-12-19T08:56:42.928Z,7.76
2018-12-19T08:57:42.919Z,7.74
2018-12-19T08:58:42.949Z,7.76
2018-12-19T08:59:42.903Z,7.80
2018-12-19T09:00:42.912Z,7.84
2018-12-19T09:01:42.877Z,7.86
2018-12-19T09:02:42.865Z,7.80
2018-12-19T09:03:42.872Z,7.91
2018-12-19T09:04:42.916Z,7.81
2018-12-19T09:05:42.833Z,7.78
2018-12-19T09:06:42.823Z,7.87
2018-12-19T09:07:42.810Z,7.94
2018-12-19T09:08:42.819Z,7.94
2018-12-19T09:09:42.792Z,7.94
2018-12-19T09:10:42.787Z,7.96
2018-12-19T09:11:42.774Z,7.98
2018-12-19T09:12:42.757Z,7.95
2018-12-19T09:13:42.769Z,7.96
2018-12-19T09:14:42.741Z,8.10
2018-12-19T09:15:42.722Z,8.14
2018-12-19T09:16:42.718Z,8.05
2018-12-19T09:17:42.706Z,8.16
2018-12-19T09:18:42.775Z,8.09
2018-12-19T09:19:42.703Z,8.23
2018-12-19T09:20:42.671Z,8.19
2018-12-19T09:21:42.662Z,8.17
2018-12-19T09:22:42.650Z,8.19
2018-12-19T09:23:42.639Z,8.23
2018-12-19T09:24:42.652Z,8.24
2018-12-19T09:25:42.620Z,8.24
2018-12-19T09:26:42.639Z,8.14
2018-12-19T09:27:42.599Z,8.16
2018-12-19T09:28:42.586Z,8.23
2018-12-19T09:29:42.600Z,8.21
2018-12-19T09:30:42.561Z,8.24
2018-12-19T09:31:42.552Z,8.19
2018-12-19T09:32:42.539Z,8.21
2018-12-19T09:33:42.538Z,8.29
2018-12-19T09:34:42.541Z,8.28
2018-12-19T09:35:42.509Z,8.34
2018-12-19T09:36:42.504Z,8.35
2018-12-19T09:37:42.506Z,8.34
2018-12-19T09:38:42.490Z,8.31
2018-12-19T09:39:42.522Z,8.32
2018-12-19T09:40:42.480Z,8.31
2018-12-19T09:41:42.503Z,8.23
2018-12-19T09:42:42.442Z,8.31
2018-12-19T09:43:42.460Z,8.28
2018-12-19T09:44:42.430Z,8.19
2018-12-19T09:45:42.405Z,8.19
2018-12-19T09:46:42.399Z,8.19
2018-12-19T09:47:42.392Z,8.21
2018-12-19T09:48:42.381Z,8.31
2018-12-19T09:49:42.429Z,8.32
2018-12-19T09:50:42.352Z,8.35
2018-12-19T09:51:42.340Z,8.35
2018-12-19T09:52:42.339Z,8.35
2018-12-19T09:53:42.316Z,8.44
2018-12-19T09:54:42.334Z,8.44
2018-12-19T09:55:42.294Z,8.44
2018-12-19T09:56:42.287Z,8.56
2018-12-19T09:57:42.274Z,8.55
2018-12-19T09:58:42.263Z,8.62
2018-12-19T09:59:42.274Z,8.59
2018-12-19T10:00:42.240Z,8.68
2018-12-19T10:01:42.233Z,8.70
2018-12-19T10:02:42.222Z,8.70
2018-12-19T10:03:42.212Z,8.71
2018-12-19T10:04:42.241Z,8.80
2018-12-19T10:05:42.189Z,8.77
2018-12-19T10:06:42.182Z,8.80
2018-12-19T10:07:42.167Z,8.77
2018-12-19T10:08:42.160Z,8.80
2018-12-19T10:09:42.170Z,8.77
2018-12-19T10:10:42.158Z,8.85
2018-12-19T10:11:42.127Z,8.81
2018-12-19T10:12:42.144Z,8.74
2018-12-19T10:13:42.115Z,8.85
2018-12-19T10:14:42.090Z,8.83
2018-12-19T10:15:42.076Z,8.86
2018-12-19T10:16:42.090Z,8.90
2018-12-19T10:17:42.066Z,8.92
2018-12-19T10:18:42.045Z,9.03
2018-12-19T10:19:42.035Z,9.04
2018-12-19T10:20:42.025Z,9.04
2018-12-19T10:21:42.033Z,9.06
2018-12-19T10:22:42.024Z,9.04
2018-12-19T10:23:42.003Z,9.11
2018-12-19T10:24:41.989Z,9.09
2018-12-19T10:25:41.970Z,9.12
2018-12-19T10:26:41.961Z,9.15
2018-12-19T10:27:41.988Z,9.14
2018-12-19T10:28:41.938Z,9.08
2018-12-19T10:29:41.930Z,9.12
2018-12-19T10:30:41.918Z,9.11
2018-12-19T10:31:41.930Z,9.11
2018-12-19T10:32:41.893Z,9.11
2018-12-19T10:33:41.936Z,9.12
2018-12-19T10:34:41.874Z,9.26
2018-12-19T10:35:41.863Z,9.29
2018-12-19T10:36:41.850Z,9.34
2018-12-19T10:37:41.847Z,9.34
2018-12-19T10:38:41.857Z,9.32
2018-12-19T10:39:41.822Z,9.48
2018-12-19T10:40:41.821Z,9.51
2018-12-19T10:41:41.815Z,9.48
2018-12-19T10:42:41.789Z,9.52
2018-12-19T10:43:41.860Z,9.57
2018-12-19T10:44:41.765Z,9.52
2018-12-19T10:45:41.756Z,9.67
2018-12-19T10:46:41.742Z,9.72
2018-12-19T10:47:41.731Z,9.70
2018-12-19T10:48:41.727Z,9.78
2018-12-19T10:49:41.729Z,9.84
2018-12-19T10:50:41.704Z,9.87
2018-12-19T10:51:41.689Z,9.84
2018-12-19T10:52:41.700Z,9.85
2018-12-19T10:53:41.669Z,9.73
2018-12-19T10:54:41.676Z,9.77
2018-12-19T10:55:41.667Z,9.77
2018-12-19T10:56:41.636Z,9.88
2018-12-19T10:57:41.625Z,9.78
2018-12-19T10:58:41.620Z,9.85
2018-12-19T10:59:41.620Z,9.87
2018-12-19T11:00:41.601Z,9.88
2018-12-19T11:01:41.583Z,9.94
2018-12-19T11:02:41.694Z,9.99
2018-12-19T11:03:41.686Z,9.98
2018-12-19T11:04:41.573Z,10.06
2018-12-19T11:05:41.538Z,10.05
2018-12-19T11:06:41.593Z,10.17
2018-12-19T11:07:41.567Z,10.17
2018-12-19T11:08:41.503Z,10.14
2018-12-19T11:09:41.511Z,10.09
2018-12-19T11:10:41.498Z,10.05
2018-12-19T11:11:41.478Z,9.98
2018-12-19T11:12:41.465Z,9.96
2018-12-19T11:13:41.449Z,9.77
2018-12-19T11:14:41.459Z,9.85
2018-12-19T11:15:41.434Z,9.81
2018-12-19T11:16:41.422Z,9.75
2018-12-19T11:17:41.405Z,9.70
2018-12-19T11:18:41.414Z,9.75
2018-12-19T11:19:41.426Z,9.75
2018-12-19T11:20:41.411Z,9.75
2018-12-19T11:21:41.361Z,9.75
2018-12-19T11:22:41.353Z,9.67
2018-12-19T11:23:41.365Z,9.66
2018-12-19T11:24:41.328Z,9.63
2018-12-19T11:25:41.335Z,9.73
2018-12-19T11:26:41.322Z,9.77
2018-12-19T11:27:41.303Z,9.69
2018-12-19T11:28:41.284Z,9.67
2018-12-19T11:29:41.300Z,9.75
2018-12-19T11:30:41.264Z,9.85
2018-12-19T11:31:41.251Z,9.94
2018-12-19T11:32:41.260Z,9.85
2018-12-19T11:33:41.233Z,10.01
2018-12-19T11:34:41.223Z,9.98
2018-12-19T11:35:41.226Z,9.99
2018-12-19T11:36:41.198Z,9.96
2018-12-19T11:37:41.193Z,9.91
2018-12-19T11:38:41.185Z,9.94
2018-12-19T11:39:41.179Z,9.91
2018-12-19T11:40:41.171Z,9.91
2018-12-19T11:41:41.147Z,9.91
2018-12-19T11:42:41.135Z,9.91
2018-12-19T11:43:41.126Z,9.91
2018-12-19T11:44:41.131Z,9.94
2018-12-19T11:45:41.102Z,10.01
2018-12-19T11:46:41.095Z,9.91
2018-12-19T11:47:41.127Z,9.94
2018-12-19T11:48:41.072Z,9.94
2018-12-19T11:49:41.079Z,9.94
2018-12-19T11:50:41.107Z,9.93
2018-12-19T11:51:41.039Z,9.96
2018-12-19T11:52:41.032Z,9.96
2018-12-19T11:53:41.015Z,9.94
2018-12-19T11:54:41.045Z,9.93
2018-12-19T11:55:40.997Z,9.94
2018-12-19T11:56:40.982Z,9.88
2018-12-19T11:57:40.974Z,9.91
2018-12-19T11:58:40.972Z,9.96
2018-12-19T11:59:40.949Z,9.94
2018-12-19T12:00:40.961Z,9.91
2018-12-19T12:01:41.565Z,10.08
2018-12-19T12:02:40.921Z,10.08
2018-12-19T12:03:40.912Z,10.10
2018-12-19T12:04:40.920Z,10.23
2018-12-19T12:05:40.884Z,10.27
2018-12-19T12:06:40.896Z,10.30
2018-12-19T12:07:40.881Z,10.34
2018-12-19T12:08:40.891Z,10.42
2018-12-19T12:09:40.877Z,10.43
2018-12-19T12:10:40.829Z,10.54
2018-12-19T12:11:45.586Z,10.48
2018-12-19T12:12:41.812Z,10.58
2018-12-19T12:13:40.799Z,10.55
2018-12-19T12:14:40.815Z,10.60
2018-12-19T12:15:40.777Z,10.68
2018-12-19T12:16:40.766Z,10.68
2018-12-19T12:17:40.758Z,10.75
2018-12-19T12:18:40.747Z,10.75
2018-12-19T12:19:50.035Z,10.70
2018-12-19T12:20:40.723Z,10.78
2018-12-19T12:21:40.710Z,10.73
2018-12-19T12:22:41.240Z,10.72
2018-12-19T12:23:47.152Z,10.76
2018-12-19T12:24:41.685Z,10.73
2018-12-19T12:25:40.736Z,10.78
2018-12-19T12:26:40.682Z,10.76
2018-12-19T12:27:40.651Z,10.80
2018-12-19T12:28:40.672Z,10.80
2018-12-19T12:29:40.637Z,10.73
2018-12-19T12:30:40.660Z,10.82
2018-12-19T12:31:40.605Z,10.86
2018-12-19T12:32:40.619Z,10.75
2018-12-19T12:33:40.581Z,10.78
2018-12-19T12:34:40.603Z,10.79
2018-12-19T12:35:40.598Z,10.85
2018-12-19T12:36:40.552Z,10.72
2018-12-19T12:37:40.546Z,10.78
2018-12-19T12:38:40.540Z,10.73
2018-12-19T12:39:40.538Z,10.83
2018-12-19T12:40:40.563Z,10.85
2018-12-19T12:41:40.498Z,10.78
2018-12-19T12:42:40.496Z,10.79
2018-12-19T12:43:40.489Z,10.79
2018-12-19T12:44:40.468Z,10.79
2018-12-19T12:45:40.471Z,10.86
2018-12-19T12:46:40.481Z,10.90
2018-12-19T12:47:40.441Z,10.95
2018-12-19T12:48:47.975Z,10.94
2018-12-19T12:49:47.970Z,11.08
2018-12-19T12:50:47.974Z,11.05
2018-12-19T12:51:50.119Z,11.16
2018-12-19T12:52:47.935Z,11.20
2018-12-19T12:53:48.018Z,11.12
2018-12-19T12:54:47.915Z,11.08
2018-12-19T12:55:48.935Z,11.11
2018-12-19T12:58:09.099Z,11.11
2018-12-19T13:04:16.829Z,11.08
2018-12-19T13:05:16.761Z,11.16
2018-12-19T13:06:16.793Z,11.15
2018-12-19T13:08:44.074Z,11.20
2018-12-19T13:09:43.954Z,11.20
2018-12-19T13:10:43.878Z,11.09
2018-12-19T13:11:44.031Z,11.13
2018-12-19T13:12:43.857Z,11.11
2018-12-19T13:13:43.852Z,11.09
2018-12-19T13:14:43.860Z,11.05
2018-12-19T13:15:43.821Z,11.13
2018-12-19T13:16:43.832Z,11.12
2018-12-19T13:17:43.798Z,11.12
2018-12-19T13:18:51.341Z,11.08
2018-12-19T13:19:43.830Z,11.09
2018-12-19T13:20:43.785Z,11.09
2018-12-19T13:21:51.430Z,11.05
2018-12-19T13:22:43.750Z,11.04
2018-12-19T13:23:43.749Z,11.09
2018-12-19T13:24:43.764Z,11.09
2018-12-19T13:25:51.325Z,11.08
2018-12-19T13:26:43.732Z,11.05
2018-12-19T13:27:43.699Z,11.04
2018-12-19T13:28:45.100Z,11.00
2018-12-19T13:29:43.723Z,11.01
2018-12-19T13:30:43.684Z,10.86
2018-12-19T13:31:43.645Z,10.98
2018-12-19T13:32:43.637Z,10.90
2018-12-19T13:33:51.242Z,10.91
2018-12-19T13:34:43.619Z,11.00
2018-12-19T13:35:43.620Z,10.91
2018-12-19T13:36:43.597Z,11.05
2018-12-19T13:37:43.583Z,10.95
2018-12-19T13:38:44.931Z,10.98
2018-12-19T13:39:43.562Z,10.98
2018-12-19T13:40:43.596Z,10.95
2018-12-19T13:41:43.539Z,10.94
2018-12-19T13:42:43.528Z,10.98
2018-12-19T13:43:43.521Z,10.85
2018-12-19T13:44:43.508Z,10.94
2018-12-19T13:45:43.538Z,10.91
2018-12-19T13:46:43.485Z,10.91
2018-12-19T13:47:43.479Z,10.86
2018-12-19T13:48:43.462Z,10.93
2018-12-19T13:49:43.451Z,10.87
2018-12-19T13:50:43.442Z,10.86
2018-12-19T13:51:43.494Z,10.86
2018-12-19T13:52:43.416Z,10.87
2018-12-19T13:53:43.413Z,10.86
2018-12-19T13:54:43.396Z,10.76
2018-12-19T13:55:43.404Z,10.85
2018-12-19T13:56:43.375Z,10.90
2018-12-19T13:57:43.369Z,10.87
2018-12-19T13:58:43.357Z,10.86
2018-12-19T13:59:43.353Z,10.67
2018-12-19T14:00:43.354Z,10.72
2018-12-19T14:01:43.384Z,10.73
2018-12-19T14:02:43.311Z,10.70
2018-12-19T14:03:43.301Z,10.62
2018-12-19T14:04:43.288Z,10.73
2018-12-19T14:05:43.309Z,10.68
2018-12-19T14:06:43.271Z,10.67
2018-12-19T14:07:43.267Z,10.61
2018-12-19T14:08:43.245Z,10.58
2018-12-19T14:09:43.239Z,10.64
2018-12-19T14:10:43.225Z,10.62
2018-12-19T14:11:43.236Z,10.55
2018-12-19T14:12:43.203Z,10.54
2018-12-19T14:13:43.196Z,10.52